sensor_id;sensor_type;location;lat;lon;timestamp;P1;durP1;ratioP1;P2;durP2;ratioP2
60873;SDS011;46715;40.642;-7.920;2024-03-02T00:01:05;19.83;;;5.50;;
60873;SDS011;46715;40.642;-7.920;2024-03-02T00:05:07;18.70;;;5.22;;
60873;SDS011;46715;40.642;-7.920;2024-03-02T00:07:11;20.30;;;6.03;;
60873;SDS011;46715;40.642;-7.920;2024-03-02T00:09:14;22.52;;;5.45;;
60873;SDS011;46715;40.642;-7.920;2024-03-02T00:11:15;22.43;;;5.70;;
60873;SDS011;46715;40.642;-7.920;2024-03-02T00:13:16;14.13;;;5.40;;
60873;SDS011;46715;40.642;-7.920;2024-03-02T00:17:45;23.95;;;5.43;;
60873;SDS011;46715;40.642;-7.920;2024-03-02T00:19:46;30.08;;;6.28;;
60873;SDS011;46715;40.642;-7.920;2024-03-02T00:21:47;20.30;;;5.57;;
60873;SDS011;46715;40.642;-7.920;2024-03-02T00:23:48;22.93;;;6.47;;
60873;SDS011;46715;40.642;-7.920;2024-03-02T00:25:53;16.90;;;6.22;;
60873;SDS011;46715;40.642;-7.920;2024-03-02T00:27:55;25.98;;;6.20;;
60873;SDS011;46715;40.642;-7.920;2024-03-02T00:29:56;22.33;;;6.50;;
60873;SDS011;46715;40.642;-7.920;2024-03-02T00:31:57;32.57;;;6.93;;
60873;SDS011;46715;40.642;-7.920;2024-03-02T00:33:58;25.35;;;6.75;;
60873;SDS011;46715;40.642;-7.920;2024-03-02T00:36:01;29.25;;;6.90;;
60873;SDS011;46715;40.642;-7.920;2024-03-02T00:38:04;23.77;;;5.78;;
60873;SDS011;46715;40.642;-7.920;2024-03-02T00:40:06;20.27;;;6.07;;
60873;SDS011;46715;40.642;-7.920;2024-03-02T00:44:09;26.33;;;5.65;;
60873;SDS011;46715;40.642;-7.920;2024-03-02T00:46:12;15.77;;;5.60;;
60873;SDS011;46715;40.642;-7.920;2024-03-02T00:48:16;23.75;;;5.55;;
60873;SDS011;46715;40.642;-7.920;2024-03-02T00:50:17;23.60;;;6.15;;
60873;SDS011;46715;40.642;-7.920;2024-03-02T00:52:17;24.13;;;5.57;;
60873;SDS011;46715;40.642;-7.920;2024-03-02T00:54:19;20.47;;;6.00;;
60873;SDS011;46715;40.642;-7.920;2024-03-02T00:56:22;30.52;;;5.15;;
60873;SDS011;46715;40.642;-7.920;2024-03-02T00:58:26;23.08;;;4.97;;
60873;SDS011;46715;40.642;-7.920;2024-03-02T01:00:27;25.23;;;5.10;;
60873;SDS011;46715;40.642;-7.920;2024-03-02T01:02:28;27.90;;;4.87;;
60873;SDS011;46715;40.642;-7.920;2024-03-02T01:04:29;29.25;;;6.30;;
60873;SDS011;46715;40.642;-7.920;2024-03-02T01:06:30;24.20;;;5.83;;
60873;SDS011;46715;40.642;-7.920;2024-03-02T01:08:31;24.48;;;5.72;;
60873;SDS011;46715;40.642;-7.920;2024-03-02T01:10:32;22.70;;;6.00;;
60873;SDS011;46715;40.642;-7.920;2024-03-02T01:12:33;21.27;;;5.63;;
60873;SDS011;46715;40.642;-7.920;2024-03-02T01:14:34;17.17;;;4.57;;
60873;SDS011;46715;40.642;-7.920;2024-03-02T01:16:35;23.92;;;5.90;;
60873;SDS011;46715;40.642;-7.920;2024-03-02T01:18:36;24.53;;;6.33;;
60873;SDS011;46715;40.642;-7.920;2024-03-02T01:20:37;24.07;;;5.93;;
60873;SDS011;46715;40.642;-7.920;2024-03-02T01:22:37;24.70;;;5.03;;
60873;SDS011;46715;40.642;-7.920;2024-03-02T01:24:38;13.30;;;4.50;;
60873;SDS011;46715;40.642;-7.920;2024-03-02T01:26:39;19.13;;;5.53;;
60873;SDS011;46715;40.642;-7.920;2024-03-02T01:28:40;27.03;;;6.47;;
60873;SDS011;46715;40.642;-7.920;2024-03-02T01:30:40;17.47;;;5.17;;
60873;SDS011;46715;40.642;-7.920;2024-03-02T01:32:42;24.73;;;5.28;;
60873;SDS011;46715;40.642;-7.920;2024-03-02T01:34:43;18.57;;;4.33;;
60873;SDS011;46715;40.642;-7.920;2024-03-02T01:36:44;20.37;;;4.47;;
60873;SDS011;46715;40.642;-7.920;2024-03-02T01:38:44;15.10;;;5.57;;
60873;SDS011;46715;40.642;-7.920;2024-03-02T01:40:45;17.97;;;4.63;;
60873;SDS011;46715;40.642;-7.920;2024-03-02T01:42:46;18.77;;;5.33;;
60873;SDS011;46715;40.642;-7.920;2024-03-02T01:44:47;20.47;;;4.63;;
60873;SDS011;46715;40.642;-7.920;2024-03-02T01:46:48;15.33;;;4.53;;
60873;SDS011;46715;40.642;-7.920;2024-03-02T01:48:49;21.30;;;5.20;;
60873;SDS011;46715;40.642;-7.920;2024-03-02T01:50:49;21.63;;;5.17;;
60873;SDS011;46715;40.642;-7.920;2024-03-02T01:52:50;16.58;;;4.07;;
60873;SDS011;46715;40.642;-7.920;2024-03-02T01:54:51;14.23;;;4.13;;
60873;SDS011;46715;40.642;-7.920;2024-03-02T01:56:52;12.27;;;3.20;;
60873;SDS011;46715;40.642;-7.920;2024-03-02T01:58:53;13.10;;;3.63;;
60873;SDS011;46715;40.642;-7.920;2024-03-02T02:00:54;13.23;;;3.20;;
60873;SDS011;46715;40.642;-7.920;2024-03-02T02:02:55;14.37;;;3.30;;
60873;SDS011;46715;40.642;-7.920;2024-03-02T02:04:56;10.90;;;2.77;;
60873;SDS011;46715;40.642;-7.920;2024-03-02T02:06:56;12.30;;;3.50;;
60873;SDS011;46715;40.642;-7.920;2024-03-02T02:08:57;9.03;;;3.13;;
60873;SDS011;46715;40.642;-7.920;2024-03-02T02:10:58;11.37;;;2.93;;
60873;SDS011;46715;40.642;-7.920;2024-03-02T02:12:59;17.33;;;4.23;;
60873;SDS011;46715;40.642;-7.920;2024-03-02T02:15:00;17.88;;;3.47;;
60873;SDS011;46715;40.642;-7.920;2024-03-02T02:17:01;18.03;;;3.17;;
60873;SDS011;46715;40.642;-7.920;2024-03-02T02:19:02;13.30;;;3.30;;
60873;SDS011;46715;40.642;-7.920;2024-03-02T02:21:03;13.43;;;3.65;;
60873;SDS011;46715;40.642;-7.920;2024-03-02T02:23:04;15.63;;;3.43;;
60873;SDS011;46715;40.642;-7.920;2024-03-02T02:25:10;11.75;;;3.50;;
60873;SDS011;46715;40.642;-7.920;2024-03-02T02:27:10;14.63;;;3.80;;
60873;SDS011;46715;40.642;-7.920;2024-03-02T02:29:18;15.60;;;3.40;;
60873;SDS011;46715;40.642;-7.920;2024-03-02T02:31:18;9.80;;;3.53;;
60873;SDS011;46715;40.642;-7.920;2024-03-02T02:33:19;15.87;;;3.77;;
60873;SDS011;46715;40.642;-7.920;2024-03-02T02:35:20;18.17;;;4.07;;
60873;SDS011;46715;40.642;-7.920;2024-03-02T02:37:21;15.30;;;3.90;;
60873;SDS011;46715;40.642;-7.920;2024-03-02T02:39:22;13.87;;;3.17;;
60873;SDS011;46715;40.642;-7.920;2024-03-02T02:41:23;19.37;;;3.93;;
60873;SDS011;46715;40.642;-7.920;2024-03-02T02:43:23;20.00;;;4.53;;
60873;SDS011;46715;40.642;-7.920;2024-03-02T02:45:24;25.27;;;4.33;;
60873;SDS011;46715;40.642;-7.920;2024-03-02T02:47:25;24.87;;;4.80;;
60873;SDS011;46715;40.642;-7.920;2024-03-02T02:49:26;21.25;;;5.38;;
60873;SDS011;46715;40.642;-7.920;2024-03-02T02:51:27;24.77;;;4.80;;
60873;SDS011;46715;40.642;-7.920;2024-03-02T02:53:28;19.60;;;4.53;;
60873;SDS011;46715;40.642;-7.920;2024-03-02T02:55:28;24.07;;;4.57;;
60873;SDS011;46715;40.642;-7.920;2024-03-02T02:57:29;19.57;;;4.80;;
60873;SDS011;46715;40.642;-7.920;2024-03-02T02:59:35;25.67;;;5.30;;
60873;SDS011;46715;40.642;-7.920;2024-03-02T03:01:36;28.05;;;5.57;;
60873;SDS011;46715;40.642;-7.920;2024-03-02T03:03:37;26.40;;;5.90;;
60873;SDS011;46715;40.642;-7.920;2024-03-02T03:05:37;31.70;;;5.20;;
60873;SDS011;46715;40.642;-7.920;2024-03-02T03:07:40;19.35;;;5.30;;
60873;SDS011;46715;40.642;-7.920;2024-03-02T03:09:41;31.58;;;6.07;;
60873;SDS011;46715;40.642;-7.920;2024-03-02T03:11:42;33.73;;;6.27;;
60873;SDS011;46715;40.642;-7.920;2024-03-02T03:13:43;43.27;;;6.70;;
60873;SDS011;46715;40.642;-7.920;2024-03-02T03:15:43;38.43;;;6.90;;
60873;SDS011;46715;40.642;-7.920;2024-03-02T03:17:44;31.40;;;5.80;;
60873;SDS011;46715;40.642;-7.920;2024-03-02T03:19:47;27.50;;;6.38;;
60873;SDS011;46715;40.642;-7.920;2024-03-02T03:21:48;36.97;;;6.13;;
60873;SDS011;46715;40.642;-7.920;2024-03-02T03:23:48;37.97;;;6.30;;
60873;SDS011;46715;40.642;-7.920;2024-03-02T03:25:49;27.27;;;6.30;;
60873;SDS011;46715;40.642;-7.920;2024-03-02T03:27:50;38.93;;;6.83;;
60873;SDS011;46715;40.642;-7.920;2024-03-02T03:29:52;31.70;;;6.43;;
60873;SDS011;46715;40.642;-7.920;2024-03-02T03:31:54;34.63;;;6.43;;
60873;SDS011;46715;40.642;-7.920;2024-03-02T03:33:55;35.10;;;8.03;;
60873;SDS011;46715;40.642;-7.920;2024-03-02T03:35:56;40.13;;;7.60;;
60873;SDS011;46715;40.642;-7.920;2024-03-02T03:37:56;37.23;;;7.90;;
60873;SDS011;46715;40.642;-7.920;2024-03-02T03:39:57;28.33;;;7.03;;
60873;SDS011;46715;40.642;-7.920;2024-03-02T03:41:58;34.85;;;7.30;;
60873;SDS011;46715;40.642;-7.920;2024-03-02T03:43:59;31.03;;;7.73;;
60873;SDS011;46715;40.642;-7.920;2024-03-02T03:46:00;29.93;;;7.27;;
60873;SDS011;46715;40.642;-7.920;2024-03-02T03:48:00;30.00;;;6.90;;
60873;SDS011;46715;40.642;-7.920;2024-03-02T03:50:02;29.80;;;6.22;;
60873;SDS011;46715;40.642;-7.920;2024-03-02T03:52:07;25.70;;;5.85;;
60873;SDS011;46715;40.642;-7.920;2024-03-02T03:54:07;29.20;;;5.37;;
60873;SDS011;46715;40.642;-7.920;2024-03-02T03:56:08;30.90;;;6.47;;
60873;SDS011;46715;40.642;-7.920;2024-03-02T03:58:09;21.77;;;5.97;;
60873;SDS011;46715;40.642;-7.920;2024-03-02T04:00:10;26.67;;;6.90;;
60873;SDS011;46715;40.642;-7.920;2024-03-02T04:02:12;20.65;;;5.50;;
60873;SDS011;46715;40.642;-7.920;2024-03-02T04:04:13;35.07;;;6.77;;
60873;SDS011;46715;40.642;-7.920;2024-03-02T04:06:14;24.17;;;5.43;;
60873;SDS011;46715;40.642;-7.920;2024-03-02T04:08:16;35.08;;;6.13;;
60873;SDS011;46715;40.642;-7.920;2024-03-02T04:10:17;26.93;;;6.90;;
60873;SDS011;46715;40.642;-7.920;2024-03-02T04:12:18;35.67;;;6.10;;
60873;SDS011;46715;40.642;-7.920;2024-03-02T04:14:19;24.93;;;5.87;;
60873;SDS011;46715;40.642;-7.920;2024-03-02T04:16:19;23.83;;;6.10;;
60873;SDS011;46715;40.642;-7.920;2024-03-02T04:18:20;30.17;;;5.93;;
60873;SDS011;46715;40.642;-7.920;2024-03-02T04:20:21;22.80;;;5.77;;
60873;SDS011;46715;40.642;-7.920;2024-03-02T04:22:22;19.93;;;5.40;;
60873;SDS011;46715;40.642;-7.920;2024-03-02T04:24:22;28.83;;;5.73;;
60873;SDS011;46715;40.642;-7.920;2024-03-02T04:26:23;24.57;;;5.43;;
60873;SDS011;46715;40.642;-7.920;2024-03-02T04:28:25;26.75;;;5.07;;
60873;SDS011;46715;40.642;-7.920;2024-03-02T04:30:26;23.40;;;4.70;;
60873;SDS011;46715;40.642;-7.920;2024-03-02T04:32:27;23.60;;;5.10;;
60873;SDS011;46715;40.642;-7.920;2024-03-02T04:34:28;25.37;;;5.20;;
60873;SDS011;46715;40.642;-7.920;2024-03-02T04:36:28;18.73;;;4.63;;
60873;SDS011;46715;40.642;-7.920;2024-03-02T04:38:30;22.67;;;4.97;;
60873;SDS011;46715;40.642;-7.920;2024-03-02T04:40:32;24.95;;;4.75;;
60873;SDS011;46715;40.642;-7.920;2024-03-02T04:42:33;16.23;;;4.80;;
60873;SDS011;46715;40.642;-7.920;2024-03-02T04:44:33;18.23;;;5.03;;
60873;SDS011;46715;40.642;-7.920;2024-03-02T04:46:38;23.95;;;4.65;;
60873;SDS011;46715;40.642;-7.920;2024-03-02T04:48:39;22.77;;;4.70;;
60873;SDS011;46715;40.642;-7.920;2024-03-02T04:50:40;29.30;;;5.60;;
60873;SDS011;46715;40.642;-7.920;2024-03-02T04:52:40;33.30;;;5.17;;
60873;SDS011;46715;40.642;-7.920;2024-03-02T04:54:41;23.10;;;4.33;;
60873;SDS011;46715;40.642;-7.920;2024-03-02T04:57:14;21.77;;;4.95;;
60873;SDS011;46715;40.642;-7.920;2024-03-02T04:59:15;20.20;;;4.20;;
60873;SDS011;46715;40.642;-7.920;2024-03-02T05:01:17;21.20;;;4.78;;
60873;SDS011;46715;40.642;-7.920;2024-03-02T05:03:18;30.57;;;5.77;;
60873;SDS011;46715;40.642;-7.920;2024-03-02T05:05:18;18.93;;;4.57;;
60873;SDS011;46715;40.642;-7.920;2024-03-02T05:07:19;20.67;;;5.27;;
60873;SDS011;46715;40.642;-7.920;2024-03-02T05:09:20;20.83;;;4.63;;
60873;SDS011;46715;40.642;-7.920;2024-03-02T05:11:21;28.77;;;5.23;;
60873;SDS011;46715;40.642;-7.920;2024-03-02T05:13:39;21.80;;;4.32;;
60873;SDS011;46715;40.642;-7.920;2024-03-02T05:15:40;17.80;;;4.07;;
60873;SDS011;46715;40.642;-7.920;2024-03-02T05:17:41;27.33;;;4.60;;
60873;SDS011;46715;40.642;-7.920;2024-03-02T05:19:45;17.38;;;4.38;;
60873;SDS011;46715;40.642;-7.920;2024-03-02T05:21:45;18.53;;;4.60;;
60873;SDS011;46715;40.642;-7.920;2024-03-02T05:23:46;19.33;;;4.50;;
60873;SDS011;46715;40.642;-7.920;2024-03-02T05:25:47;22.87;;;4.47;;
60873;SDS011;46715;40.642;-7.920;2024-03-02T05:27:48;16.90;;;4.17;;
60873;SDS011;46715;40.642;-7.920;2024-03-02T05:29:48;16.73;;;4.03;;
60873;SDS011;46715;40.642;-7.920;2024-03-02T05:31:49;29.17;;;5.20;;
60873;SDS011;46715;40.642;-7.920;2024-03-02T05:33:50;23.70;;;4.83;;
60873;SDS011;46715;40.642;-7.920;2024-03-02T05:35:52;29.90;;;4.88;;
60873;SDS011;46715;40.642;-7.920;2024-03-02T05:37:53;19.27;;;5.28;;
60873;SDS011;46715;40.642;-7.920;2024-03-02T05:39:54;22.40;;;4.50;;
60873;SDS011;46715;40.642;-7.920;2024-03-02T05:41:55;28.10;;;4.87;;
60873;SDS011;46715;40.642;-7.920;2024-03-02T05:43:56;24.83;;;4.40;;
60873;SDS011;46715;40.642;-7.920;2024-03-02T05:45:56;33.50;;;5.67;;
60873;SDS011;46715;40.642;-7.920;2024-03-02T05:47:57;20.63;;;4.60;;
60873;SDS011;46715;40.642;-7.920;2024-03-02T05:49:58;31.67;;;4.68;;
60873;SDS011;46715;40.642;-7.920;2024-03-02T05:51:59;26.97;;;5.27;;
60873;SDS011;46715;40.642;-7.920;2024-03-02T05:54:00;23.27;;;4.47;;
60873;SDS011;46715;40.642;-7.920;2024-03-02T05:56:00;25.47;;;4.67;;
60873;SDS011;46715;40.642;-7.920;2024-03-02T05:58:01;24.03;;;4.17;;
60873;SDS011;46715;40.642;-7.920;2024-03-02T06:00:20;21.45;;;4.03;;
60873;SDS011;46715;40.642;-7.920;2024-03-02T06:02:22;19.33;;;4.63;;
60873;SDS011;46715;40.642;-7.920;2024-03-02T06:04:23;22.70;;;4.27;;
60873;SDS011;46715;40.642;-7.920;2024-03-02T06:06:24;23.37;;;3.93;;
60873;SDS011;46715;40.642;-7.920;2024-03-02T06:08:25;22.17;;;4.82;;
60873;SDS011;46715;40.642;-7.920;2024-03-02T06:10:25;23.57;;;3.67;;
60873;SDS011;46715;40.642;-7.920;2024-03-02T06:12:26;21.47;;;3.73;;
60873;SDS011;46715;40.642;-7.920;2024-03-02T06:14:27;20.40;;;4.10;;
60873;SDS011;46715;40.642;-7.920;2024-03-02T06:16:28;19.30;;;3.57;;
60873;SDS011;46715;40.642;-7.920;2024-03-02T06:18:28;17.93;;;4.33;;
60873;SDS011;46715;40.642;-7.920;2024-03-02T06:20:29;22.33;;;3.90;;
60873;SDS011;46715;40.642;-7.920;2024-03-02T06:22:33;16.38;;;3.17;;
60873;SDS011;46715;40.642;-7.920;2024-03-02T06:24:33;23.83;;;4.70;;
60873;SDS011;46715;40.642;-7.920;2024-03-02T06:26:34;21.10;;;4.20;;
60873;SDS011;46715;40.642;-7.920;2024-03-02T06:28:35;21.67;;;4.10;;
60873;SDS011;46715;40.642;-7.920;2024-03-02T06:30:36;24.80;;;4.50;;
60873;SDS011;46715;40.642;-7.920;2024-03-02T06:32:36;30.67;;;6.00;;
60873;SDS011;46715;40.642;-7.920;2024-03-02T06:34:37;26.40;;;5.07;;
60873;SDS011;46715;40.642;-7.920;2024-03-02T06:36:40;28.67;;;5.57;;
60873;SDS011;46715;40.642;-7.920;2024-03-02T06:38:43;34.72;;;5.75;;
60873;SDS011;46715;40.642;-7.920;2024-03-02T06:40:43;30.37;;;5.13;;
60873;SDS011;46715;40.642;-7.920;2024-03-02T06:42:44;26.50;;;5.97;;
60873;SDS011;46715;40.642;-7.920;2024-03-02T06:44:45;28.43;;;5.07;;
60873;SDS011;46715;40.642;-7.920;2024-03-02T06:46:46;27.27;;;5.57;;
60873;SDS011;46715;40.642;-7.920;2024-03-02T06:48:46;36.30;;;5.77;;
60873;SDS011;46715;40.642;-7.920;2024-03-02T06:50:47;28.90;;;5.93;;
60873;SDS011;46715;40.642;-7.920;2024-03-02T06:52:48;24.87;;;5.57;;
60873;SDS011;46715;40.642;-7.920;2024-03-02T06:54:49;27.77;;;5.17;;
60873;SDS011;46715;40.642;-7.920;2024-03-02T06:56:49;26.97;;;4.97;;
60873;SDS011;46715;40.642;-7.920;2024-03-02T06:58:50;31.47;;;5.80;;
60873;SDS011;46715;40.642;-7.920;2024-03-02T07:00:51;30.83;;;5.70;;
60873;SDS011;46715;40.642;-7.920;2024-03-02T07:02:53;28.35;;;5.43;;
60873;SDS011;46715;40.642;-7.920;2024-03-02T07:04:54;26.33;;;5.17;;
60873;SDS011;46715;40.642;-7.920;2024-03-02T07:06:55;26.60;;;5.40;;
60873;SDS011;46715;40.642;-7.920;2024-03-02T07:08:55;23.13;;;4.80;;
60873;SDS011;46715;40.642;-7.920;2024-03-02T07:10:56;28.33;;;5.33;;
60873;SDS011;46715;40.642;-7.920;2024-03-02T07:12:57;32.33;;;5.17;;
60873;SDS011;46715;40.642;-7.920;2024-03-02T07:14:58;21.47;;;5.37;;
60873;SDS011;46715;40.642;-7.920;2024-03-02T07:17:05;21.83;;;4.43;;
60873;SDS011;46715;40.642;-7.920;2024-03-02T07:19:06;34.53;;;5.57;;
60873;SDS011;46715;40.642;-7.920;2024-03-02T07:21:07;27.30;;;5.93;;
60873;SDS011;46715;40.642;-7.920;2024-03-02T07:23:08;24.58;;;5.05;;
60873;SDS011;46715;40.642;-7.920;2024-03-02T07:25:09;29.98;;;4.40;;
60873;SDS011;46715;40.642;-7.920;2024-03-02T07:27:10;23.03;;;4.50;;
60873;SDS011;46715;40.642;-7.920;2024-03-02T07:29:12;25.88;;;4.15;;
60873;SDS011;46715;40.642;-7.920;2024-03-02T07:31:13;23.60;;;5.00;;
60873;SDS011;46715;40.642;-7.920;2024-03-02T07:33:13;24.37;;;4.13;;
60873;SDS011;46715;40.642;-7.920;2024-03-02T07:35:17;13.43;;;3.63;;
60873;SDS011;46715;40.642;-7.920;2024-03-02T07:37:18;25.77;;;3.97;;
60873;SDS011;46715;40.642;-7.920;2024-03-02T07:39:19;24.63;;;4.30;;
60873;SDS011;46715;40.642;-7.920;2024-03-02T07:41:19;19.97;;;3.87;;
60873;SDS011;46715;40.642;-7.920;2024-03-02T07:43:20;26.60;;;4.07;;
60873;SDS011;46715;40.642;-7.920;2024-03-02T07:45:23;17.70;;;3.93;;
60873;SDS011;46715;40.642;-7.920;2024-03-02T07:47:24;16.73;;;3.50;;
60873;SDS011;46715;40.642;-7.920;2024-03-02T07:49:25;22.47;;;3.77;;
60873;SDS011;46715;40.642;-7.920;2024-03-02T07:51:26;16.63;;;3.37;;
60873;SDS011;46715;40.642;-7.920;2024-03-02T07:53:26;13.23;;;3.53;;
60873;SDS011;46715;40.642;-7.920;2024-03-02T07:55:27;19.27;;;3.43;;
60873;SDS011;46715;40.642;-7.920;2024-03-02T07:57:28;21.37;;;4.57;;
60873;SDS011;46715;40.642;-7.920;2024-03-02T07:59:28;17.43;;;3.93;;
60873;SDS011;46715;40.642;-7.920;2024-03-02T08:01:30;25.53;;;4.97;;
60873;SDS011;46715;40.642;-7.920;2024-03-02T08:05:34;27.00;;;7.38;;
60873;SDS011;46715;40.642;-7.920;2024-03-02T08:07:35;18.03;;;3.73;;
60873;SDS011;46715;40.642;-7.920;2024-03-02T08:09:36;21.20;;;4.03;;
60873;SDS011;46715;40.642;-7.920;2024-03-02T08:11:36;18.90;;;4.67;;
60873;SDS011;46715;40.642;-7.920;2024-03-02T08:13:37;22.90;;;4.77;;
60873;SDS011;46715;40.642;-7.920;2024-03-02T08:15:38;24.10;;;5.30;;
60873;SDS011;46715;40.642;-7.920;2024-03-02T08:17:39;14.13;;;6.20;;
60873;SDS011;46715;40.642;-7.920;2024-03-02T08:21:52;16.40;;;3.03;;
60873;SDS011;46715;40.642;-7.920;2024-03-02T08:23:53;22.83;;;5.00;;
60873;SDS011;46715;40.642;-7.920;2024-03-02T08:25:54;12.60;;;4.33;;
60873;SDS011;46715;40.642;-7.920;2024-03-02T08:27:54;12.87;;;3.50;;
60873;SDS011;46715;40.642;-7.920;2024-03-02T08:29:55;6.93;;;2.40;;
60873;SDS011;46715;40.642;-7.920;2024-03-02T08:31:56;10.60;;;2.50;;
60873;SDS011;46715;40.642;-7.920;2024-03-02T08:33:57;18.63;;;3.83;;
60873;SDS011;46715;40.642;-7.920;2024-03-02T08:35:59;17.23;;;2.78;;
60873;SDS011;46715;40.642;-7.920;2024-03-02T08:38:00;24.33;;;3.55;;
60873;SDS011;46715;40.642;-7.920;2024-03-02T08:40:01;19.75;;;4.80;;
60873;SDS011;46715;40.642;-7.920;2024-03-02T08:42:04;15.90;;;4.68;;
60873;SDS011;46715;40.642;-7.920;2024-03-02T08:44:05;20.47;;;4.63;;
60873;SDS011;46715;40.642;-7.920;2024-03-02T08:46:06;22.58;;;4.38;;
60873;SDS011;46715;40.642;-7.920;2024-03-02T08:48:07;11.23;;;3.67;;
60873;SDS011;46715;40.642;-7.920;2024-03-02T08:50:11;24.00;;;4.90;;
60873;SDS011;46715;40.642;-7.920;2024-03-02T08:52:12;17.90;;;3.80;;
60873;SDS011;46715;40.642;-7.920;2024-03-02T08:54:13;23.20;;;3.80;;
60873;SDS011;46715;40.642;-7.920;2024-03-02T08:56:13;17.90;;;3.77;;
60873;SDS011;46715;40.642;-7.920;2024-03-02T08:58:16;17.60;;;3.92;;
60873;SDS011;46715;40.642;-7.920;2024-03-02T09:00:17;22.10;;;4.40;;
60873;SDS011;46715;40.642;-7.920;2024-03-02T09:02:17;22.20;;;4.93;;
60873;SDS011;46715;40.642;-7.920;2024-03-02T09:04:18;20.07;;;3.37;;
60873;SDS011;46715;40.642;-7.920;2024-03-02T09:06:19;15.73;;;3.57;;
60873;SDS011;46715;40.642;-7.920;2024-03-02T09:08:21;19.67;;;2.50;;
60873;SDS011;46715;40.642;-7.920;2024-03-02T09:10:22;14.77;;;2.63;;
60873;SDS011;46715;40.642;-7.920;2024-03-02T09:12:23;16.43;;;3.30;;
60873;SDS011;46715;40.642;-7.920;2024-03-02T09:14:23;10.40;;;2.97;;
60873;SDS011;46715;40.642;-7.920;2024-03-02T09:16:24;10.60;;;3.53;;
60873;SDS011;46715;40.642;-7.920;2024-03-02T09:18:31;7.88;;;2.40;;
60873;SDS011;46715;40.642;-7.920;2024-03-02T09:20:32;6.68;;;2.65;;
60873;SDS011;46715;40.642;-7.920;2024-03-02T09:22:32;9.47;;;2.30;;
60873;SDS011;46715;40.642;-7.920;2024-03-02T09:24:33;6.87;;;1.90;;
60873;SDS011;46715;40.642;-7.920;2024-03-02T09:26:34;6.93;;;1.90;;
60873;SDS011;46715;40.642;-7.920;2024-03-02T09:28:34;6.67;;;2.13;;
60873;SDS011;46715;40.642;-7.920;2024-03-02T09:30:35;5.97;;;2.40;;
60873;SDS011;46715;40.642;-7.920;2024-03-02T09:32:37;7.07;;;2.20;;
60873;SDS011;46715;40.642;-7.920;2024-03-02T09:34:38;11.10;;;2.50;;
60873;SDS011;46715;40.642;-7.920;2024-03-02T09:36:38;10.07;;;1.90;;
60873;SDS011;46715;40.642;-7.920;2024-03-02T09:38:39;10.17;;;2.40;;
60873;SDS011;46715;40.642;-7.920;2024-03-02T09:40:41;7.67;;;1.80;;
60873;SDS011;46715;40.642;-7.920;2024-03-02T09:42:43;8.77;;;1.80;;
60873;SDS011;46715;40.642;-7.920;2024-03-02T09:44:46;6.60;;;1.73;;
60873;SDS011;46715;40.642;-7.920;2024-03-02T09:46:51;14.65;;;2.70;;
60873;SDS011;46715;40.642;-7.920;2024-03-02T09:48:52;11.77;;;3.00;;
60873;SDS011;46715;40.642;-7.920;2024-03-02T09:50:53;16.90;;;3.10;;
60873;SDS011;46715;40.642;-7.920;2024-03-02T09:52:54;13.17;;;3.30;;
60873;SDS011;46715;40.642;-7.920;2024-03-02T09:54:55;18.73;;;2.53;;
60873;SDS011;46715;40.642;-7.920;2024-03-02T09:56:56;17.40;;;2.60;;
60873;SDS011;46715;40.642;-7.920;2024-03-02T09:58:56;14.77;;;3.13;;
60873;SDS011;46715;40.642;-7.920;2024-03-02T10:00:57;17.43;;;3.77;;
60873;SDS011;46715;40.642;-7.920;2024-03-02T10:02:58;13.20;;;2.97;;
60873;SDS011;46715;40.642;-7.920;2024-03-02T10:05:00;13.98;;;3.42;;
60873;SDS011;46715;40.642;-7.920;2024-03-02T10:07:14;20.65;;;3.72;;
60873;SDS011;46715;40.642;-7.920;2024-03-02T10:09:27;14.23;;;3.88;;
60873;SDS011;46715;40.642;-7.920;2024-03-02T10:11:32;18.98;;;4.53;;
60873;SDS011;46715;40.642;-7.920;2024-03-02T10:13:35;19.10;;;3.58;;
60873;SDS011;46715;40.642;-7.920;2024-03-02T10:15:37;19.43;;;2.87;;
60873;SDS011;46715;40.642;-7.920;2024-03-02T10:17:41;11.85;;;2.88;;
60873;SDS011;46715;40.642;-7.920;2024-03-02T10:21:44;16.13;;;3.13;;
60873;SDS011;46715;40.642;-7.920;2024-03-02T10:23:51;13.05;;;2.78;;
60873;SDS011;46715;40.642;-7.920;2024-03-02T10:25:53;15.27;;;3.58;;
60873;SDS011;46715;40.642;-7.920;2024-03-02T10:27:56;12.07;;;3.20;;
60873;SDS011;46715;40.642;-7.920;2024-03-02T10:30:00;14.98;;;3.35;;
60873;SDS011;46715;40.642;-7.920;2024-03-02T10:32:03;14.95;;;3.88;;
60873;SDS011;46715;40.642;-7.920;2024-03-02T10:34:05;11.80;;;3.85;;
60873;SDS011;46715;40.642;-7.920;2024-03-02T10:38:07;15.30;;;3.72;;
60873;SDS011;46715;40.642;-7.920;2024-03-02T10:40:11;13.57;;;3.40;;
60873;SDS011;46715;40.642;-7.920;2024-03-02T10:42:14;10.13;;;2.20;;
60873;SDS011;46715;40.642;-7.920;2024-03-02T10:44:15;7.82;;;2.70;;
60873;SDS011;46715;40.642;-7.920;2024-03-02T10:46:17;5.60;;;1.98;;
60873;SDS011;46715;40.642;-7.920;2024-03-02T10:48:20;8.15;;;2.47;;
60873;SDS011;46715;40.642;-7.920;2024-03-02T10:50:21;4.65;;;2.10;;
60873;SDS011;46715;40.642;-7.920;2024-03-02T10:52:23;5.78;;;1.90;;
60873;SDS011;46715;40.642;-7.920;2024-03-02T10:54:23;7.17;;;2.17;;
60873;SDS011;46715;40.642;-7.920;2024-03-02T10:56:39;3.45;;;1.40;;
60873;SDS011;46715;40.642;-7.920;2024-03-02T10:58:42;5.75;;;1.52;;
60873;SDS011;46715;40.642;-7.920;2024-03-02T11:00:43;3.10;;;1.77;;
60873;SDS011;46715;40.642;-7.920;2024-03-02T11:02:46;6.63;;;1.98;;
60873;SDS011;46715;40.642;-7.920;2024-03-02T11:04:53;6.70;;;2.15;;
60873;SDS011;46715;40.642;-7.920;2024-03-02T11:09:00;6.75;;;1.98;;
60873;SDS011;46715;40.642;-7.920;2024-03-02T11:11:15;3.35;;;1.50;;
60873;SDS011;46715;40.642;-7.920;2024-03-02T11:13:22;4.68;;;1.80;;
60873;SDS011;46715;40.642;-7.920;2024-03-02T11:15:28;5.53;;;2.00;;
60873;SDS011;46715;40.642;-7.920;2024-03-02T11:17:31;4.20;;;1.17;;
60873;SDS011;46715;40.642;-7.920;2024-03-02T11:19:32;2.28;;;1.25;;
60873;SDS011;46715;40.642;-7.920;2024-03-02T11:21:34;2.42;;;1.45;;
60873;SDS011;46715;40.642;-7.920;2024-03-02T11:23:35;4.63;;;1.77;;
60873;SDS011;46715;40.642;-7.920;2024-03-02T11:25:36;3.80;;;2.13;;
60873;SDS011;46715;40.642;-7.920;2024-03-02T11:29:51;1.77;;;1.00;;
60873;SDS011;46715;40.642;-7.920;2024-03-02T11:31:58;3.58;;;1.48;;
60873;SDS011;46715;40.642;-7.920;2024-03-02T11:34:16;1.67;;;0.98;;
60873;SDS011;46715;40.642;-7.920;2024-03-02T11:36:18;1.05;;;0.90;;
60873;SDS011;46715;40.642;-7.920;2024-03-02T11:38:19;2.47;;;1.17;;
60873;SDS011;46715;40.642;-7.920;2024-03-02T11:40:23;1.73;;;0.85;;
60873;SDS011;46715;40.642;-7.920;2024-03-02T11:42:25;1.20;;;0.70;;
60873;SDS011;46715;40.642;-7.920;2024-03-02T11:44:27;1.67;;;0.73;;
60873;SDS011;46715;40.642;-7.920;2024-03-02T11:46:28;1.83;;;0.80;;
60873;SDS011;46715;40.642;-7.920;2024-03-02T11:48:28;3.17;;;1.00;;
60873;SDS011;46715;40.642;-7.920;2024-03-02T11:52:33;3.03;;;1.58;;
60873;SDS011;46715;40.642;-7.920;2024-03-02T11:54:36;4.40;;;2.35;;
60873;SDS011;46715;40.642;-7.920;2024-03-02T11:56:39;7.22;;;2.28;;
60873;SDS011;46715;40.642;-7.920;2024-03-02T11:58:41;4.82;;;1.90;;
60873;SDS011;46715;40.642;-7.920;2024-03-02T12:00:42;11.27;;;2.15;;
60873;SDS011;46715;40.642;-7.920;2024-03-02T12:02:43;5.53;;;2.33;;
60873;SDS011;46715;40.642;-7.920;2024-03-02T12:04:48;9.25;;;2.10;;
60873;SDS011;46715;40.642;-7.920;2024-03-02T12:09:03;6.75;;;1.63;;
60873;SDS011;46715;40.642;-7.920;2024-03-02T12:11:04;5.88;;;1.40;;
60873;SDS011;46715;40.642;-7.920;2024-03-02T12:13:07;8.35;;;1.40;;
60873;SDS011;46715;40.642;-7.920;2024-03-02T12:15:10;6.82;;;1.85;;
60873;SDS011;46715;40.642;-7.920;2024-03-02T12:17:17;12.27;;;2.40;;